sensor_id;sensor_type;location;lat;lon;timestamp;temperature;humidity
5881;DHT22;2966;52.598;10.928;2023-04-09T00:01:37;4.90;99.90
5881;DHT22;2966;52.598;10.928;2023-04-09T00:04:04;4.80;99.90
5881;DHT22;2966;52.598;10.928;2023-04-09T00:06:31;4.80;99.90
5881;DHT22;2966;52.598;10.928;2023-04-09T00:08:59;4.70;99.90
5881;DHT22;2966;52.598;10.928;2023-04-09T00:11:25;4.60;99.90
5881;DHT22;2966;52.598;10.928;2023-04-09T00:13:52;4.60;99.90
5881;DHT22;2966;52.598;10.928;2023-04-09T00:16:19;4.50;99.90
5881;DHT22;2966;52.598;10.928;2023-04-09T00:18:45;4.50;99.90
5881;DHT22;2966;52.598;10.928;2023-04-09T00:21:12;4.40;99.90
5881;DHT22;2966;52.598;10.928;2023-04-09T00:23:40;4.30;99.90
5881;DHT22;2966;52.598;10.928;2023-04-09T00:26:08;4.30;99.90
5881;DHT22;2966;52.598;10.928;2023-04-09T00:28:35;4.30;99.90
5881;DHT22;2966;52.598;10.928;2023-04-09T00:31:02;4.20;99.90
5881;DHT22;2966;52.598;10.928;2023-04-09T00:33:29;4.10;99.90
5881;DHT22;2966;52.598;10.928;2023-04-09T00:35:55;4.10;99.90
5881;DHT22;2966;52.598;10.928;2023-04-09T00:38:22;4.10;99.90
5881;DHT22;2966;52.598;10.928;2023-04-09T00:40:49;4.10;99.90
5881;DHT22;2966;52.598;10.928;2023-04-09T00:43:17;4.00;99.90
5881;DHT22;2966;52.598;10.928;2023-04-09T00:45:44;4.00;99.90
5881;DHT22;2966;52.598;10.928;2023-04-09T00:48:11;3.90;99.90
5881;DHT22;2966;52.598;10.928;2023-04-09T00:50:38;3.80;99.90
5881;DHT22;2966;52.598;10.928;2023-04-09T00:53:05;3.70;99.90
5881;DHT22;2966;52.598;10.928;2023-04-09T00:55:32;3.70;99.90
5881;DHT22;2966;52.598;10.928;2023-04-09T00:57:59;3.60;99.90
5881;DHT22;2966;52.598;10.928;2023-04-09T01:00:27;3.60;99.90
5881;DHT22;2966;52.598;10.928;2023-04-09T01:02:56;3.50;99.90
5881;DHT22;2966;52.598;10.928;2023-04-09T01:05:24;3.50;99.90
5881;DHT22;2966;52.598;10.928;2023-04-09T01:08:02;3.60;99.90
5881;DHT22;2966;52.598;10.928;2023-04-09T01:10:37;3.60;99.90
5881;DHT22;2966;52.598;10.928;2023-04-09T01:13:09;3.50;99.90
5881;DHT22;2966;52.598;10.928;2023-04-09T01:15:43;3.50;99.90
5881;DHT22;2966;52.598;10.928;2023-04-09T01:18:17;3.50;99.90
5881;DHT22;2966;52.598;10.928;2023-04-09T01:20:48;3.50;99.90
5881;DHT22;2966;52.598;10.928;2023-04-09T01:23:24;3.50;99.90
5881;DHT22;2966;52.598;10.928;2023-04-09T01:26:02;3.50;99.90
5881;DHT22;2966;52.598;10.928;2023-04-09T01:28:33;3.60;99.90
5881;DHT22;2966;52.598;10.928;2023-04-09T01:31:03;3.60;99.90
5881;DHT22;2966;52.598;10.928;2023-04-09T01:33:30;3.70;99.90
5881;DHT22;2966;52.598;10.928;2023-04-09T01:35:58;3.70;99.90
5881;DHT22;2966;52.598;10.928;2023-04-09T01:38:25;3.80;99.90
5881;DHT22;2966;52.598;10.928;2023-04-09T01:40:53;3.80;99.90
5881;DHT22;2966;52.598;10.928;2023-04-09T01:43:21;3.80;99.90
5881;DHT22;2966;52.598;10.928;2023-04-09T01:45:49;3.80;99.90
5881;DHT22;2966;52.598;10.928;2023-04-09T01:48:17;3.80;99.90
5881;DHT22;2966;52.598;10.928;2023-04-09T01:50:45;3.80;99.90
5881;DHT22;2966;52.598;10.928;2023-04-09T01:53:12;3.80;99.90
5881;DHT22;2966;52.598;10.928;2023-04-09T01:55:38;3.80;99.90
5881;DHT22;2966;52.598;10.928;2023-04-09T01:58:08;3.90;99.90
5881;DHT22;2966;52.598;10.928;2023-04-09T02:00:38;3.90;99.90
5881;DHT22;2966;52.598;10.928;2023-04-09T02:03:09;3.90;99.90
5881;DHT22;2966;52.598;10.928;2023-04-09T02:05:40;3.90;99.90
5881;DHT22;2966;52.598;10.928;2023-04-09T02:08:09;3.90;99.90
5881;DHT22;2966;52.598;10.928;2023-04-09T02:10:38;4.00;99.90
5881;DHT22;2966;52.598;10.928;2023-04-09T02:13:08;4.00;99.90
5881;DHT22;2966;52.598;10.928;2023-04-09T02:15:39;4.00;99.90
5881;DHT22;2966;52.598;10.928;2023-04-09T02:18:23;4.00;99.90
5881;DHT22;2966;52.598;10.928;2023-04-09T02:20:51;4.00;99.90
5881;DHT22;2966;52.598;10.928;2023-04-09T02:23:18;4.00;99.90
5881;DHT22;2966;52.598;10.928;2023-04-09T02:25:45;4.00;99.90
5881;DHT22;2966;52.598;10.928;2023-04-09T02:28:12;4.00;99.90
5881;DHT22;2966;52.598;10.928;2023-04-09T02:30:38;4.10;99.90
5881;DHT22;2966;52.598;10.928;2023-04-09T02:33:05;4.10;99.90
5881;DHT22;2966;52.598;10.928;2023-04-09T02:35:33;4.20;99.90
5881;DHT22;2966;52.598;10.928;2023-04-09T02:38:00;4.20;99.90
5881;DHT22;2966;52.598;10.928;2023-04-09T02:40:27;4.10;99.90
5881;DHT22;2966;52.598;10.928;2023-04-09T02:42:54;4.20;99.90
5881;DHT22;2966;52.598;10.928;2023-04-09T02:45:20;4.20;99.90
5881;DHT22;2966;52.598;10.928;2023-04-09T02:47:47;4.20;99.90
5881;DHT22;2966;52.598;10.928;2023-04-09T02:50:14;4.30;99.90
5881;DHT22;2966;52.598;10.928;2023-04-09T02:52:45;4.30;99.90
5881;DHT22;2966;52.598;10.928;2023-04-09T02:55:11;4.30;99.90
5881;DHT22;2966;52.598;10.928;2023-04-09T02:57:38;4.30;99.90
5881;DHT22;2966;52.598;10.928;2023-04-09T03:00:08;4.30;99.90
5881;DHT22;2966;52.598;10.928;2023-04-09T03:02:35;4.30;99.90
5881;DHT22;2966;52.598;10.928;2023-04-09T03:05:02;4.30;99.90
5881;DHT22;2966;52.598;10.928;2023-04-09T03:07:29;4.30;99.90
5881;DHT22;2966;52.598;10.928;2023-04-09T03:09:57;4.40;99.90
5881;DHT22;2966;52.598;10.928;2023-04-09T03:12:23;4.40;99.90
5881;DHT22;2966;52.598;10.928;2023-04-09T03:14:50;4.40;99.90
5881;DHT22;2966;52.598;10.928;2023-04-09T03:17:17;4.50;99.90
5881;DHT22;2966;52.598;10.928;2023-04-09T03:19:43;4.50;99.90
5881;DHT22;2966;52.598;10.928;2023-04-09T03:22:10;4.50;99.90
5881;DHT22;2966;52.598;10.928;2023-04-09T03:24:37;4.50;99.90
5881;DHT22;2966;52.598;10.928;2023-04-09T03:27:05;4.60;99.90
5881;DHT22;2966;52.598;10.928;2023-04-09T03:29:31;4.70;99.90
5881;DHT22;2966;52.598;10.928;2023-04-09T03:31:58;4.70;99.90
5881;DHT22;2966;52.598;10.928;2023-04-09T03:34:25;4.70;99.90
5881;DHT22;2966;52.598;10.928;2023-04-09T03:36:51;4.80;99.90
5881;DHT22;2966;52.598;10.928;2023-04-09T03:39:18;4.80;99.90
5881;DHT22;2966;52.598;10.928;2023-04-09T03:41:45;4.80;99.90
5881;DHT22;2966;52.598;10.928;2023-04-09T03:44:13;4.80;99.90
5881;DHT22;2966;52.598;10.928;2023-04-09T03:46:39;4.80;99.90
5881;DHT22;2966;52.598;10.928;2023-04-09T03:49:07;4.80;99.90
5881;DHT22;2966;52.598;10.928;2023-04-09T03:51:36;4.80;99.90
5881;DHT22;2966;52.598;10.928;2023-04-09T03:54:03;4.90;99.90
5881;DHT22;2966;52.598;10.928;2023-04-09T03:56:30;4.90;99.90
5881;DHT22;2966;52.598;10.928;2023-04-09T03:58:56;4.90;99.90
5881;DHT22;2966;52.598;10.928;2023-04-09T04:01:24;4.90;99.90
5881;DHT22;2966;52.598;10.928;2023-04-09T04:03:53;4.90;99.90
5881;DHT22;2966;52.598;10.928;2023-04-09T04:06:24;4.90;99.90
5881;DHT22;2966;52.598;10.928;2023-04-09T04:08:51;5.00;99.90
5881;DHT22;2966;52.598;10.928;2023-04-09T04:11:18;5.00;99.90
5881;DHT22;2966;52.598;10.928;2023-04-09T04:13:45;5.00;99.90
5881;DHT22;2966;52.598;10.928;2023-04-09T04:16:11;5.00;99.90
5881;DHT22;2966;52.598;10.928;2023-04-09T04:18:42;5.00;99.90
5881;DHT22;2966;52.598;10.928;2023-04-09T04:21:12;5.00;99.90
5881;DHT22;2966;52.598;10.928;2023-04-09T04:23:39;5.00;99.90
5881;DHT22;2966;52.598;10.928;2023-04-09T04:26:09;5.00;99.90
5881;DHT22;2966;52.598;10.928;2023-04-09T04:28:36;5.10;99.90
5881;DHT22;2966;52.598;10.928;2023-04-09T04:31:07;5.10;99.90
5881;DHT22;2966;52.598;10.928;2023-04-09T04:33:34;5.10;99.90
5881;DHT22;2966;52.598;10.928;2023-04-09T04:36:07;5.10;99.90
5881;DHT22;2966;52.598;10.928;2023-04-09T04:38:34;5.10;99.90
5881;DHT22;2966;52.598;10.928;2023-04-09T04:41:04;5.10;99.90
5881;DHT22;2966;52.598;10.928;2023-04-09T04:43:30;5.10;99.90
5881;DHT22;2966;52.598;10.928;2023-04-09T04:45:57;5.20;99.90
5881;DHT22;2966;52.598;10.928;2023-04-09T04:48:25;5.20;99.90
5881;DHT22;2966;52.598;10.928;2023-04-09T04:50:55;5.20;99.90
5881;DHT22;2966;52.598;10.928;2023-04-09T04:53:24;5.20;99.90
5881;DHT22;2966;52.598;10.928;2023-04-09T04:55:50;5.20;99.90
5881;DHT22;2966;52.598;10.928;2023-04-09T04:58:17;5.30;99.90
5881;DHT22;2966;52.598;10.928;2023-04-09T05:00:45;5.30;99.90
5881;DHT22;2966;52.598;10.928;2023-04-09T05:03:12;5.30;99.90
5881;DHT22;2966;52.598;10.928;2023-04-09T05:05:39;5.30;99.90
5881;DHT22;2966;52.598;10.928;2023-04-09T05:08:06;5.40;99.90
5881;DHT22;2966;52.598;10.928;2023-04-09T05:10:34;5.40;99.90
5881;DHT22;2966;52.598;10.928;2023-04-09T05:13:01;5.40;99.90
5881;DHT22;2966;52.598;10.928;2023-04-09T05:15:30;5.40;99.90
5881;DHT22;2966;52.598;10.928;2023-04-09T05:17:57;5.40;99.90
5881;DHT22;2966;52.598;10.928;2023-04-09T05:20:26;5.40;99.90
5881;DHT22;2966;52.598;10.928;2023-04-09T05:22:53;5.40;99.90
5881;DHT22;2966;52.598;10.928;2023-04-09T05:25:19;5.40;99.90
5881;DHT22;2966;52.598;10.928;2023-04-09T05:27:48;5.40;99.90
5881;DHT22;2966;52.598;10.928;2023-04-09T05:30:15;5.40;99.90
5881;DHT22;2966;52.598;10.928;2023-04-09T05:32:41;5.50;99.90
5881;DHT22;2966;52.598;10.928;2023-04-09T05:35:08;5.50;99.90
5881;DHT22;2966;52.598;10.928;2023-04-09T05:37:35;5.40;99.90
5881;DHT22;2966;52.598;10.928;2023-04-09T05:40:02;5.50;99.90
5881;DHT22;2966;52.598;10.928;2023-04-09T05:42:29;5.50;99.90
5881;DHT22;2966;52.598;10.928;2023-04-09T05:44:56;5.50;99.90
5881;DHT22;2966;52.598;10.928;2023-04-09T05:47:23;5.50;99.90
5881;DHT22;2966;52.598;10.928;2023-04-09T05:49:50;5.50;99.90
5881;DHT22;2966;52.598;10.928;2023-04-09T05:52:16;5.60;99.90
5881;DHT22;2966;52.598;10.928;2023-04-09T05:54:44;5.60;99.90
5881;DHT22;2966;52.598;10.928;2023-04-09T05:57:10;5.70;99.90
5881;DHT22;2966;52.598;10.928;2023-04-09T05:59:37;5.70;99.90
5881;DHT22;2966;52.598;10.928;2023-04-09T06:02:05;5.70;99.90
5881;DHT22;2966;52.598;10.928;2023-04-09T06:04:32;5.70;99.90
5881;DHT22;2966;52.598;10.928;2023-04-09T06:06:58;5.70;99.90
5881;DHT22;2966;52.598;10.928;2023-04-09T06:09:25;5.80;99.90
5881;DHT22;2966;52.598;10.928;2023-04-09T06:11:52;5.80;99.90
5881;DHT22;2966;52.598;10.928;2023-04-09T06:14:19;5.80;99.90
5881;DHT22;2966;52.598;10.928;2023-04-09T06:16:45;5.80;99.90
5881;DHT22;2966;52.598;10.928;2023-04-09T06:19:16;5.90;99.90
5881;DHT22;2966;52.598;10.928;2023-04-09T06:21:42;5.90;99.90
5881;DHT22;2966;52.598;10.928;2023-04-09T06:24:09;5.90;99.90
5881;DHT22;2966;52.598;10.928;2023-04-09T06:26:36;5.90;99.90
5881;DHT22;2966;52.598;10.928;2023-04-09T06:29:02;5.90;99.90
5881;DHT22;2966;52.598;10.928;2023-04-09T06:31:29;5.90;99.90
5881;DHT22;2966;52.598;10.928;2023-04-09T06:33:56;6.00;99.90
5881;DHT22;2966;52.598;10.928;2023-04-09T06:36:24;6.10;99.90
5881;DHT22;2966;52.598;10.928;2023-04-09T06:38:51;6.20;99.90
5881;DHT22;2966;52.598;10.928;2023-04-09T06:41:19;6.20;99.90
5881;DHT22;2966;52.598;10.928;2023-04-09T06:43:46;6.20;99.90
5881;DHT22;2966;52.598;10.928;2023-04-09T06:46:13;6.20;99.90
5881;DHT22;2966;52.598;10.928;2023-04-09T06:48:41;6.20;99.90
5881;DHT22;2966;52.598;10.928;2023-04-09T06:51:09;6.20;99.90
5881;DHT22;2966;52.598;10.928;2023-04-09T06:53:38;6.20;99.90
5881;DHT22;2966;52.598;10.928;2023-04-09T06:56:05;6.10;99.90
5881;DHT22;2966;52.598;10.928;2023-04-09T06:58:32;6.10;99.90
5881;DHT22;2966;52.598;10.928;2023-04-09T07:01:01;6.00;99.90
5881;DHT22;2966;52.598;10.928;2023-04-09T07:03:28;6.10;99.90
5881;DHT22;2966;52.598;10.928;2023-04-09T07:05:55;5.90;99.90
5881;DHT22;2966;52.598;10.928;2023-04-09T07:08:22;5.90;99.90
5881;DHT22;2966;52.598;10.928;2023-04-09T07:10:50;5.90;99.90
5881;DHT22;2966;52.598;10.928;2023-04-09T07:13:17;6.00;99.90
5881;DHT22;2966;52.598;10.928;2023-04-09T07:15:44;6.10;99.90
5881;DHT22;2966;52.598;10.928;2023-04-09T07:18:10;6.10;99.90
5881;DHT22;2966;52.598;10.928;2023-04-09T07:20:37;6.10;99.90
5881;DHT22;2966;52.598;10.928;2023-04-09T07:23:04;6.20;99.90
5881;DHT22;2966;52.598;10.928;2023-04-09T07:25:33;6.20;99.90
5881;DHT22;2966;52.598;10.928;2023-04-09T07:28:01;6.10;99.90
5881;DHT22;2966;52.598;10.928;2023-04-09T07:30:27;6.10;99.90
5881;DHT22;2966;52.598;10.928;2023-04-09T07:32:55;6.10;99.90
5881;DHT22;2966;52.598;10.928;2023-04-09T07:35:21;6.10;99.90
5881;DHT22;2966;52.598;10.928;2023-04-09T07:37:48;6.10;99.90
5881;DHT22;2966;52.598;10.928;2023-04-09T07:40:15;6.10;99.90
5881;DHT22;2966;52.598;10.928;2023-04-09T07:42:41;6.10;99.90
5881;DHT22;2966;52.598;10.928;2023-04-09T07:45:10;6.00;99.90
5881;DHT22;2966;52.598;10.928;2023-04-09T07:47:37;6.10;99.90
5881;DHT22;2966;52.598;10.928;2023-04-09T07:50:06;6.20;99.90
5881;DHT22;2966;52.598;10.928;2023-04-09T07:52:32;6.20;99.90
5881;DHT22;2966;52.598;10.928;2023-04-09T07:54:59;6.20;99.90
5881;DHT22;2966;52.598;10.928;2023-04-09T07:57:26;6.20;99.90
5881;DHT22;2966;52.598;10.928;2023-04-09T07:59:54;6.10;99.90
5881;DHT22;2966;52.598;10.928;2023-04-09T08:02:22;6.20;99.90
5881;DHT22;2966;52.598;10.928;2023-04-09T08:04:49;6.30;99.90
5881;DHT22;2966;52.598;10.928;2023-04-09T08:07:16;6.40;99.90
5881;DHT22;2966;52.598;10.928;2023-04-09T08:09:42;6.50;99.90
5881;DHT22;2966;52.598;10.928;2023-04-09T08:12:09;6.50;99.90
5881;DHT22;2966;52.598;10.928;2023-04-09T08:14:36;6.50;99.90
5881;DHT22;2966;52.598;10.928;2023-04-09T08:17:03;6.60;99.90
5881;DHT22;2966;52.598;10.928;2023-04-09T08:19:31;6.50;99.90
5881;DHT22;2966;52.598;10.928;2023-04-09T08:21:58;6.60;99.90
5881;DHT22;2966;52.598;10.928;2023-04-09T08:24:24;6.60;99.90
5881;DHT22;2966;52.598;10.928;2023-04-09T08:26:51;6.60;99.90
5881;DHT22;2966;52.598;10.928;2023-04-09T08:29:18;6.50;99.90
5881;DHT22;2966;52.598;10.928;2023-04-09T08:31:45;6.50;99.90
5881;DHT22;2966;52.598;10.928;2023-04-09T08:34:12;6.60;99.90
5881;DHT22;2966;52.598;10.928;2023-04-09T08:36:44;6.60;99.90
5881;DHT22;2966;52.598;10.928;2023-04-09T08:39:10;6.70;99.90
5881;DHT22;2966;52.598;10.928;2023-04-09T08:41:41;6.70;99.90
5881;DHT22;2966;52.598;10.928;2023-04-09T08:44:08;6.70;99.90
5881;DHT22;2966;52.598;10.928;2023-04-09T08:46:35;6.70;99.90
5881;DHT22;2966;52.598;10.928;2023-04-09T08:49:02;6.70;99.90
5881;DHT22;2966;52.598;10.928;2023-04-09T08:51:28;6.80;99.90
5881;DHT22;2966;52.598;10.928;2023-04-09T08:53:58;6.90;99.90
5881;DHT22;2966;52.598;10.928;2023-04-09T08:56:25;6.90;99.90
5881;DHT22;2966;52.598;10.928;2023-04-09T08:58:53;7.00;99.90
5881;DHT22;2966;52.598;10.928;2023-04-09T09:01:21;7.10;99.90
5881;DHT22;2966;52.598;10.928;2023-04-09T09:03:56;7.20;99.90
5881;DHT22;2966;52.598;10.928;2023-04-09T09:06:24;7.30;99.90
5881;DHT22;2966;52.598;10.928;2023-04-09T09:09:05;7.20;99.90
5881;DHT22;2966;52.598;10.928;2023-04-09T09:11:33;7.20;99.90
5881;DHT22;2966;52.598;10.928;2023-04-09T09:14:01;7.20;99.90
5881;DHT22;2966;52.598;10.928;2023-04-09T09:16:28;7.10;99.90
5881;DHT22;2966;52.598;10.928;2023-04-09T09:18:55;7.10;99.90
5881;DHT22;2966;52.598;10.928;2023-04-09T09:21:27;7.20;99.90
5881;DHT22;2966;52.598;10.928;2023-04-09T09:23:58;7.20;99.90
5881;DHT22;2966;52.598;10.928;2023-04-09T09:26:27;7.20;99.90
5881;DHT22;2966;52.598;10.928;2023-04-09T09:28:55;7.30;99.90
5881;DHT22;2966;52.598;10.928;2023-04-09T09:31:23;7.40;99.90
5881;DHT22;2966;52.598;10.928;2023-04-09T09:33:50;7.40;99.90
5881;DHT22;2966;52.598;10.928;2023-04-09T09:36:30;7.40;99.90
5881;DHT22;2966;52.598;10.928;2023-04-09T09:38:58;7.40;99.90
5881;DHT22;2966;52.598;10.928;2023-04-09T09:41:29;7.50;99.90
5881;DHT22;2966;52.598;10.928;2023-04-09T09:43:56;7.50;99.90
5881;DHT22;2966;52.598;10.928;2023-04-09T09:46:24;7.50;99.90
5881;DHT22;2966;52.598;10.928;2023-04-09T09:48:51;7.50;99.90
5881;DHT22;2966;52.598;10.928;2023-04-09T09:51:18;7.50;99.90
5881;DHT22;2966;52.598;10.928;2023-04-09T09:53:50;7.60;99.90
5881;DHT22;2966;52.598;10.928;2023-04-09T09:56:21;7.60;99.90
5881;DHT22;2966;52.598;10.928;2023-04-09T09:58:53;7.60;99.90
5881;DHT22;2966;52.598;10.928;2023-04-09T10:01:23;7.60;99.90
5881;DHT22;2966;52.598;10.928;2023-04-09T10:03:53;7.50;99.90
5881;DHT22;2966;52.598;10.928;2023-04-09T10:06:22;7.70;99.90
5881;DHT22;2966;52.598;10.928;2023-04-09T10:08:49;7.70;99.90
5881;DHT22;2966;52.598;10.928;2023-04-09T10:11:18;7.90;99.90
5881;DHT22;2966;52.598;10.928;2023-04-09T10:13:49;7.90;99.90
5881;DHT22;2966;52.598;10.928;2023-04-09T10:16:19;8.00;99.90
5881;DHT22;2966;52.598;10.928;2023-04-09T10:18:47;8.00;99.90
5881;DHT22;2966;52.598;10.928;2023-04-09T10:21:26;7.90;99.90
5881;DHT22;2966;52.598;10.928;2023-04-09T10:23:54;8.10;99.90
5881;DHT22;2966;52.598;10.928;2023-04-09T10:26:24;8.30;99.90
5881;DHT22;2966;52.598;10.928;2023-04-09T10:29:03;8.10;99.90
5881;DHT22;2966;52.598;10.928;2023-04-09T10:31:44;8.10;99.90
5881;DHT22;2966;52.598;10.928;2023-04-09T10:34:14;8.10;99.90
5881;DHT22;2966;52.598;10.928;2023-04-09T10:36:42;8.20;99.90
5881;DHT22;2966;52.598;10.928;2023-04-09T10:39:11;8.30;99.90
5881;DHT22;2966;52.598;10.928;2023-04-09T10:41:39;8.30;99.90
5881;DHT22;2966;52.598;10.928;2023-04-09T10:44:18;8.40;99.90
5881;DHT22;2966;52.598;10.928;2023-04-09T10:46:47;8.50;99.90
5881;DHT22;2966;52.598;10.928;2023-04-09T10:49:16;8.60;99.90
5881;DHT22;2966;52.598;10.928;2023-04-09T10:51:48;8.80;99.90
5881;DHT22;2966;52.598;10.928;2023-04-09T10:54:38;8.80;99.90
5881;DHT22;2966;52.598;10.928;2023-04-09T10:57:12;8.80;99.90
5881;DHT22;2966;52.598;10.928;2023-04-09T10:59:41;8.80;99.90
5881;DHT22;2966;52.598;10.928;2023-04-09T11:02:17;8.60;99.90
5881;DHT22;2966;52.598;10.928;2023-04-09T11:05:05;8.60;99.90
5881;DHT22;2966;52.598;10.928;2023-04-09T11:07:42;8.70;99.90
5881;DHT22;2966;52.598;10.928;2023-04-09T11:10:09;9.00;99.90
5881;DHT22;2966;52.598;10.928;2023-04-09T11:12:36;9.10;99.90
5881;DHT22;2966;52.598;10.928;2023-04-09T11:15:13;9.40;99.90
5881;DHT22;2966;52.598;10.928;2023-04-09T11:17:41;9.60;99.90
5881;DHT22;2966;52.598;10.928;2023-04-09T11:20:09;9.60;99.90
5881;DHT22;2966;52.598;10.928;2023-04-09T11:22:35;9.90;99.90
5881;DHT22;2966;52.598;10.928;2023-04-09T11:25:03;10.00;99.90
5881;DHT22;2966;52.598;10.928;2023-04-09T11:27:30;10.20;99.90
5881;DHT22;2966;52.598;10.928;2023-04-09T11:30:03;10.30;99.90
5881;DHT22;2966;52.598;10.928;2023-04-09T11:32:31;10.00;99.90
5881;DHT22;2966;52.598;10.928;2023-04-09T11:34:58;10.00;99.90
5881;DHT22;2966;52.598;10.928;2023-04-09T11:37:25;10.10;99.90
5881;DHT22;2966;52.598;10.928;2023-04-09T11:39:52;10.00;99.90
5881;DHT22;2966;52.598;10.928;2023-04-09T11:42:19;9.90;99.90
5881;DHT22;2966;52.598;10.928;2023-04-09T11:44:47;10.10;99.90
5881;DHT22;2966;52.598;10.928;2023-04-09T11:47:18;10.30;99.90
5881;DHT22;2966;52.598;10.928;2023-04-09T11:49:46;10.20;99.90
5881;DHT22;2966;52.598;10.928;2023-04-09T11:52:13;10.30;99.90
5881;DHT22;2966;52.598;10.928;2023-04-09T11:54:41;10.20;99.90
5881;DHT22;2966;52.598;10.928;2023-04-09T11:57:07;10.30;99.90
5881;DHT22;2966;52.598;10.928;2023-04-09T11:59:37;10.20;99.90
5881;DHT22;2966;52.598;10.928;2023-04-09T12:02:05;10.10;99.90
5881;DHT22;2966;52.598;10.928;2023-04-09T12:04:33;10.10;99.90
5881;DHT22;2966;52.598;10.928;2023-04-09T12:07:00;10.30;99.90
5881;DHT22;2966;52.598;10.928;2023-04-09T12:09:27;10.40;99.90
5881;DHT22;2966;52.598;10.928;2023-04-09T12:11:53;10.40;99.90
5881;DHT22;2966;52.598;10.928;2023-04-09T12:14:22;10.70;99.90
5881;DHT22;2966;52.598;10.928;2023-04-09T12:16:52;10.70;99.90
5881;DHT22;2966;52.598;10.928;2023-04-09T12:19:19;10.70;99.90
5881;DHT22;2966;52.598;10.928;2023-04-09T12:21:49;10.90;99.90
5881;DHT22;2966;52.598;10.928;2023-04-09T12:24:18;10.80;99.90
5881;DHT22;2966;52.598;10.928;2023-04-09T12:26:46;10.90;99.90
5881;DHT22;2966;52.598;10.928;2023-04-09T12:29:18;11.10;99.90
5881;DHT22;2966;52.598;10.928;2023-04-09T12:31:46;11.30;99.90
5881;DHT22;2966;52.598;10.928;2023-04-09T12:34:13;11.50;99.90
5881;DHT22;2966;52.598;10.928;2023-04-09T12:36:41;11.70;99.90
5881;DHT22;2966;52.598;10.928;2023-04-09T12:39:09;11.80;99.90
5881;DHT22;2966;52.598;10.928;2023-04-09T12:41:36;11.90;99.90
5881;DHT22;2966;52.598;10.928;2023-04-09T12:44:03;12.10;99.90
5881;DHT22;2966;52.598;10.928;2023-04-09T12:46:31;12.10;99.90
5881;DHT22;2966;52.598;10.928;2023-04-09T12:48:58;12.00;99.90
5881;DHT22;2966;52.598;10.928;2023-04-09T12:51:25;11.90;99.90
5881;DHT22;2966;52.598;10.928;2023-04-09T12:53:52;11.90;99.90
5881;DHT22;2966;52.598;10.928;2023-04-09T12:56:20;11.80;99.90
5881;DHT22;2966;52.598;10.928;2023-04-09T12:58:47;12.00;99.90
5881;DHT22;2966;52.598;10.928;2023-04-09T13:01:14;12.00;99.90
5881;DHT22;2966;52.598;10.928;2023-04-09T13:03:43;12.10;99.90
5881;DHT22;2966;52.598;10.928;2023-04-09T13:06:10;12.00;99.90
5881;DHT22;2966;52.598;10.928;2023-04-09T13:08:37;12.10;99.90
5881;DHT22;2966;52.598;10.928;2023-04-09T13:11:04;12.10;99.90
5881;DHT22;2966;52.598;10.928;2023-04-09T13:13:32;12.30;99.90
5881;DHT22;2966;52.598;10.928;2023-04-09T13:16:03;12.40;99.90
5881;DHT22;2966;52.598;10.928;2023-04-09T13:18:30;12.30;99.90
5881;DHT22;2966;52.598;10.928;2023-04-09T13:21:00;12.40;99.90
5881;DHT22;2966;52.598;10.928;2023-04-09T13:23:27;12.50;99.90
5881;DHT22;2966;52.598;10.928;2023-04-09T13:25:56;12.70;99.90
5881;DHT22;2966;52.598;10.928;2023-04-09T13:28:24;12.70;99.90
5881;DHT22;2966;52.598;10.928;2023-04-09T13:30:52;12.60;99.90
5881;DHT22;2966;52.598;10.928;2023-04-09T13:33:19;12.50;99.90
5881;DHT22;2966;52.598;10.928;2023-04-09T13:35:46;12.60;99.90
5881;DHT22;2966;52.598;10.928;2023-04-09T13:38:12;12.70;99.90
5881;DHT22;2966;52.598;10.928;2023-04-09T13:40:39;12.80;99.90
5881;DHT22;2966;52.598;10.928;2023-04-09T13:43:06;12.80;99.90
5881;DHT22;2966;52.598;10.928;2023-04-09T13:45:33;12.80;99.90
5881;DHT22;2966;52.598;10.928;2023-04-09T13:48:05;13.00;99.90
5881;DHT22;2966;52.598;10.928;2023-04-09T13:50:31;13.10;99.90
5881;DHT22;2966;52.598;10.928;2023-04-09T13:52:58;13.30;99.90
5881;DHT22;2966;52.598;10.928;2023-04-09T13:55:27;13.30;99.90
5881;DHT22;2966;52.598;10.928;2023-04-09T13:57:55;13.50;99.90
5881;DHT22;2966;52.598;10.928;2023-04-09T14:00:23;13.40;99.90
5881;DHT22;2966;52.598;10.928;2023-04-09T14:02:50;13.30;99.90
5881;DHT22;2966;52.598;10.928;2023-04-09T14:05:18;13.40;99.90
5881;DHT22;2966;52.598;10.928;2023-04-09T14:07:45;13.50;99.90
5881;DHT22;2966;52.598;10.928;2023-04-09T14:10:12;13.40;99.90
5881;DHT22;2966;52.598;10.928;2023-04-09T14:12:38;13.30;99.90
5881;DHT22;2966;52.598;10.928;2023-04-09T14:15:06;13.40;99.90
5881;DHT22;2966;52.598;10.928;2023-04-09T14:17:33;13.60;99.90
5881;DHT22;2966;52.598;10.928;2023-04-09T14:20:00;13.50;99.90
5881;DHT22;2966;52.598;10.928;2023-04-09T14:22:29;13.60;99.90
5881;DHT22;2966;52.598;10.928;2023-04-09T14:24:56;13.40;99.90
5881;DHT22;2966;52.598;10.928;2023-04-09T14:27:23;13.50;99.90
5881;DHT22;2966;52.598;10.928;2023-04-09T14:29:50;13.70;99.90
5881;DHT22;2966;52.598;10.928;2023-04-09T14:32:18;13.80;99.90
5881;DHT22;2966;52.598;10.928;2023-04-09T14:34:44;13.70;99.90
5881;DHT22;2966;52.598;10.928;2023-04-09T14:37:11;13.80;99.90
5881;DHT22;2966;52.598;10.928;2023-04-09T14:39:39;13.80;99.90
5881;DHT22;2966;52.598;10.928;2023-04-09T14:42:06;13.80;99.90
5881;DHT22;2966;52.598;10.928;2023-04-09T14:44:32;13.80;99.90
5881;DHT22;2966;52.598;10.928;2023-04-09T14:46:59;13.90;99.90
5881;DHT22;2966;52.598;10.928;2023-04-09T14:49:28;13.90;99.90
5881;DHT22;2966;52.598;10.928;2023-04-09T14:51:55;13.60;99.90
5881;DHT22;2966;52.598;10.928;2023-04-09T14:54:21;13.80;99.90
5881;DHT22;2966;52.598;10.928;2023-04-09T14:56:49;13.80;99.90
5881;DHT22;2966;52.598;10.928;2023-04-09T14:59:16;13.80;99.90
5881;DHT22;2966;52.598;10.928;2023-04-09T15:01:43;13.70;99.90
5881;DHT22;2966;52.598;10.928;2023-04-09T15:04:12;13.70;99.90
5881;DHT22;2966;52.598;10.928;2023-04-09T15:06:39;13.80;99.90
5881;DHT22;2966;52.598;10.928;2023-04-09T15:09:05;13.90;99.90
5881;DHT22;2966;52.598;10.928;2023-04-09T15:11:32;14.00;99.90
5881;DHT22;2966;52.598;10.928;2023-04-09T15:14:00;14.00;99.90
5881;DHT22;2966;52.598;10.928;2023-04-09T15:16:27;14.10;99.90
5881;DHT22;2966;52.598;10.928;2023-04-09T15:18:56;14.10;99.90
5881;DHT22;2966;52.598;10.928;2023-04-09T15:21:24;14.00;99.90
5881;DHT22;2966;52.598;10.928;2023-04-09T15:23:51;14.10;99.90
5881;DHT22;2966;52.598;10.928;2023-04-09T15:26:18;14.10;99.90
5881;DHT22;2966;52.598;10.928;2023-04-09T15:28:45;14.00;99.90
5881;DHT22;2966;52.598;10.928;2023-04-09T15:31:13;13.90;99.90
5881;DHT22;2966;52.598;10.928;2023-04-09T15:33:41;14.00;99.90
5881;DHT22;2966;52.598;10.928;2023-04-09T15:36:09;13.90;99.90
5881;DHT22;2966;52.598;10.928;2023-04-09T15:38:35;14.00;99.90
5881;DHT22;2966;52.598;10.928;2023-04-09T15:41:04;14.10;99.90
5881;DHT22;2966;52.598;10.928;2023-04-09T15:43:30;14.10;99.90
5881;DHT22;2966;52.598;10.928;2023-04-09T15:45:57;14.00;99.90
5881;DHT22;2966;52.598;10.928;2023-04-09T15:48:25;13.80;99.90
5881;DHT22;2966;52.598;10.928;2023-04-09T15:50:52;13.70;99.90
5881;DHT22;2966;52.598;10.928;2023-04-09T15:53:18;13.60;99.90
5881;DHT22;2966;52.598;10.928;2023-04-09T15:55:48;13.40;99.90
5881;DHT22;2966;52.598;10.928;2023-04-09T15:58:14;13.40;99.90
5881;DHT22;2966;52.598;10.928;2023-04-09T16:00:44;13.40;99.90
5881;DHT22;2966;52.598;10.928;2023-04-09T16:03:10;13.40;99.90